Latest Weather Observations for Canberra

IDN60901

Issued at 8:01 am EDT Saturday 16 February 2019 (issued every 10 minutes, with the page automatically refreshed every 10 minutes)

About weather observations | Map of Canberra area stations | Latest observations for Canberra area | Other Formats
Station Details ID: 070351 Name: CANBERRA AIRPORT Lat: -35.31 Lon: 149.20 Height: 577.05 m
Data from the previous 72 hours. | See also: Recent months at Canberra
Date/Time
EDT
Temp
°C
App
Temp
°C
Dew
Point
°C
Rel
Hum
%
Delta-T
°C
Wind Press
QNH
hPa
Press
MSL
hPa
Rain since
9am
mm
Dir  Spd
km/h
Gust
km/h
Spd
kts
Gust
kts
16/08:00am 14.6 14.0 11.7 83 1.6 S 6 7 3 4 1023.9 1021.5 0.0
16/07:30am 12.5 13.0 11.7 95 0.4 CALM 0 0 0 0 1023.8 1021.4 0.0
16/07:00am 11.9 12.3 11.3 96 0.3 CALM 0 0 0 0 1023.4 1021.0 0.0
16/06:30am 11.7 12.1 11.1 96 0.3 CALM 0 0 0 0 1023.4 1021.0 0.0
16/06:00am 11.5 11.8 10.9 96 0.3 CALM 0 0 0 0 1023.1 1020.7 0.0
16/05:30am 11.6 11.8 10.7 94 0.5 CALM 0 0 0 0 1023.1 1020.7 0.0
16/05:00am 12.0 12.4 11.1 94 0.5 CALM 0 4 0 2 1023.3 1020.9 0.0
16/04:30am 12.6 11.8 11.2 91 0.8 N 6 7 3 4 1023.2 1020.8 0.0
16/04:00am 13.4 14.1 12.1 92 0.7 CALM 0 0 0 0 1023.3 1020.9 0.0
16/03:30am 13.0 12.2 11.2 89 1.0 ESE 6 7 3 4 1023.3 1020.9 0.0
16/03:00am 13.7 12.6 11.8 88 1.0 SE 9 11 5 6 1023.4 1021.0 0.0
16/02:30am 13.7 12.4 11.4 86 1.3 SE 9 11 5 6 1023.6 1021.2 0.0
16/02:00am 15.0 13.6 12.1 83 1.6 SE 11 15 6 8 1023.8 1021.4 0.0
16/01:30am 15.5 13.8 12.3 81 1.8 ESE 13 17 7 9 1024.0 1021.6 0.0
16/01:00am 16.0 15.0 12.2 78 2.1 ESE 9 11 5 6 1024.5 1022.1 0.0
16/12:30am 16.9 15.3 12.8 77 2.3 ESE 13 19 7 10 1024.4 1022.0 0.0
16/12:00am 17.2 15.3 12.9 76 2.5 ENE 15 19 8 10 1024.6 1022.2 0.0
 
Date/Time
EDT
Temp
°C
App
Temp
°C
Dew
Point
°C
Rel
Hum
%
Delta-T
°C
Wind Press
QNH
hPa
Press
MSL
hPa
Rain since
9am
mm
Dir  Spd
km/h
Gust
km/h
Spd
kts
Gust
kts
15/11:30pm 17.5 16.7 13.0 75 2.6 E 9 13 5 7 1024.6 1022.2 0.0
15/11:00pm 18.4 17.8 13.5 73 2.8 ESE 9 13 5 7 1024.7 1022.3 0.0
15/10:30pm 18.8 18.2 13.6 72 3.0 SE 9 15 5 8 1024.8 1022.4 0.0
15/10:00pm 19.2 17.9 13.8 71 3.2 ESE 13 22 7 12 1024.5 1022.1 0.0
15/09:30pm 19.5 17.6 14.1 71 3.2 ESE 17 26 9 14 1024.2 1021.8 0.0
15/09:00pm 20.2 18.3 14.3 69 3.5 E 17 28 9 15 1023.4 1021.0 0.0
15/08:30pm 21.0 17.2 14.6 67 3.8 E 28 37 15 20 1022.8 1020.4 0.0
15/08:00pm 22.0 17.4 14.6 63 4.5 E 32 44 17 24 1022.2 1019.8 0.0
15/07:30pm 23.5 19.0 14.8 58 5.3 E 32 41 17 22 1021.9 1019.4 0.0
15/07:00pm 26.1 21.8 13.2 44 7.7 ENE 28 39 15 21 1021.4 1019.0 0.0
15/06:30pm 27.2 22.7 10.0 34 9.8 ENE 24 35 13 19 1021.0 1018.6 0.0
15/06:00pm 28.4 24.6 9.2 30 10.9 ENE 19 33 10 18 1021.0 1018.6 0.0
15/05:30pm 28.1 24.3 8.9 30 10.8 ENE 19 28 10 15 1020.9 1018.5 0.0
15/05:00pm 28.6 25.5 8.8 29 11.2 NNE 15 24 8 13 1020.8 1018.4 0.0
15/04:30pm 28.5 24.5 8.2 28 11.3 NNE 19 28 10 15 1021.0 1018.6 0.0
15/04:00pm 28.7 26.8 8.9 29 11.2 NE 9 13 5 7 1021.3 1018.9 0.0
15/03:30pm 28.4 26.8 10.1 32 10.5 WNW 9 17 5 9 1021.8 1019.3 0.0
15/03:00pm 27.9 24.9 9.2 31 10.6 SW 15 20 8 11 1022.2 1019.8 0.0
15/02:30pm 28.1 26.3 10.8 34 10.1 S 11 20 6 11 1022.6 1020.2 0.0
15/02:00pm 27.3 25.7 10.1 34 9.8 NW 9 17 5 9 1023.0 1020.6 0.0
15/01:30pm 25.9 24.4 10.5 38 8.8 SSW 9 17 5 9 1023.2 1020.8 0.0
15/01:00pm 24.9 23.7 11.5 43 7.7 NW 9 19 5 10 1023.9 1021.5 0.0
15/12:30pm 23.9 22.6 11.3 45 7.3 S 9 13 5 7 1024.4 1022.0 0.0
15/12:00pm 23.2 22.2 10.9 46 7.0 NNE 7 15 4 8 1024.9 1022.5 0.0
15/11:30am 22.5 21.0 10.6 47 6.7 NNW 9 15 5 8 1025.5 1023.1 0.0
15/11:00am 21.9 20.5 11.0 50 6.2 WSW 9 13 5 7 1025.7 1023.3 0.0
15/10:30am 20.6 19.7 11.2 55 5.3 ENE 7 13 4 7 1025.8 1023.4 0.0
15/10:00am 20.3 19.2 11.8 58 4.8 NW 9 15 5 8 1025.7 1023.3 0.0
15/09:30am 19.1 18.3 10.9 59 4.6 NE 6 11 3 6 1025.8 1023.4 0.0
15/09:00am 18.6 17.7 11.2 62 4.1 E 7 15 4 8 1025.9 1023.5 0.0
15/08:30am 17.8 16.5 11.4 66 3.6 ENE 9 13 5 7 1025.8 1023.4 0.0
15/08:00am 17.6 16.8 11.6 68 3.4 E 7 11 4 6 1025.6 1023.2 0.0
15/07:30am 16.7 15.9 11.6 72 2.8 ESE 7 9 4 5 1025.2 1022.9 0.0
15/07:00am 15.3 14.0 11.1 76 2.3 ESE 9 13 5 7 1024.6 1022.2 0.0
15/06:30am 16.0 14.0 11.6 75 2.4 SE 13 19 7 10 1024.4 1022.0 0.0
15/06:24am 16.3 14.4 11.7 74 2.6 ESE 13 17 7 9 1024.4 1022.0 0.0
15/06:00am 16.5 15.3 11.6 73 2.7 E 9 15 5 8 1024.3 1021.9 0.0
15/05:30am 16.6 15.5 12.0 74 2.6 ESE 9 13 5 7 1024.1 1021.7 0.0
15/05:00am 16.5 15.1 12.3 76 2.4 ESE 11 19 6 10 1023.9 1021.5 0.0
15/04:30am 16.4 15.4 12.4 77 2.3 SE 9 15 5 8 1023.8 1021.4 0.0
15/04:00am 16.1 15.2 12.7 80 1.9 SE 9 15 5 8 1023.6 1021.2 0.0
15/03:30am 15.4 14.9 12.5 83 1.6 S 7 7 4 4 1023.8 1021.4 0.0
15/03:00am 15.1 14.2 12.6 85 1.4 S 9 11 5 6 1023.8 1021.4 0.0
15/02:30am 14.4 13.7 12.1 86 1.3 ESE 7 7 4 4 1023.4 1021.0 0.0
15/02:00am 14.3 13.4 12.5 89 1.0 ENE 9 11 5 6 1023.4 1021.0 0.0
15/01:56am 14.0 13.0 12.2 89 1.0 E 9 9 5 5 1023.6 1021.2 0.0
15/01:30am 13.9 13.1 11.2 84 1.5 SE 6 9 3 5 1023.4 1021.0 0.0
15/01:00am 14.9 15.5 11.9 82 1.7 CALM 0 0 0 0 1023.4 1021.0 0.0
15/12:30am 15.7 15.0 12.1 79 2.0 SE 7 9 4 5 1023.4 1021.0 0.0
15/12:00am 16.0 14.5 12.0 77 2.2 SE 11 17 6 9 1023.0 1020.6 0.0
 
Date/Time
EDT
Temp
°C
App
Temp
°C
Dew
Point
°C
Rel
Hum
%
Delta-T
°C
Wind Press
QNH
hPa
Press
MSL
hPa
Rain since
9am
mm
Dir  Spd
km/h
Gust
km/h
Spd
kts
Gust
kts
14/11:30pm 16.2 14.4 12.0 76 2.4 ESE 13 22 7 12 1022.7 1020.3 0.0
14/11:00pm 16.9 15.1 12.0 73 2.8 ESE 13 24 7 13 1022.5 1020.1 0.0
14/10:30pm 17.5 16.8 12.0 70 3.1 ESE 7 13 4 7 1022.3 1019.9 0.0
14/10:00pm 18.3 16.5 12.1 67 3.5 ESE 13 19 7 10 1021.9 1019.4 0.0
14/09:30pm 19.4 16.5 12.2 63 4.1 E 19 28 10 15 1021.1 1018.7 0.0
14/09:00pm 20.5 16.5 10.6 53 5.5 E 22 35 12 19 1020.5 1018.1 0.0
14/08:30pm 20.9 17.5 4.0 33 8.4 N 11 13 6 7 1019.6 1017.2 0.0
14/08:00pm 22.1 18.7 4.2 31 9.0 N 11 13 6 7 1019.1 1016.7 0.0
14/07:30pm 24.0 19.8 3.9 27 10.2 NNW 15 19 8 10 1018.6 1016.1 0.0
14/07:00pm 25.3 21.1 3.9 25 10.9 NNW 15 19 8 10 1018.3 1015.8 0.0
14/06:30pm 26.0 21.6 4.5 25 11.1 NNW 17 24 9 13 1018.0 1015.5 0.0
14/06:00pm 25.7 21.4 3.0 23 11.4 N 15 22 8 12 1017.8 1015.4 0.0
14/05:30pm 26.4 23.2 3.0 22 11.8 N 9 17 5 9 1017.7 1015.3 0.0
14/05:00pm 26.2 22.7 3.5 23 11.5 NE 11 17 6 9 1017.8 1015.4 0.0
14/04:30pm 26.0 22.8 3.3 23 11.5 NNE 9 15 5 8 1018.0 1015.5 0.0
14/04:00pm 25.7 22.0 4.2 25 11.0 N 13 19 7 10 1018.0 1015.5 0.0
14/03:30pm 25.3 21.7 2.7 23 11.3 NNW 11 17 6 9 1018.3 1015.8 0.0
14/03:00pm 24.5 20.9 4.8 28 10.1 W 13 24 7 13 1018.5 1016.0 0.0
14/02:30pm 23.7 20.6 3.6 27 10.1 WNW 9 19 5 10 1018.7 1016.2 0.0
14/02:00pm 23.6 20.1 5.5 31 9.4 WNW 13 22 7 12 1019.0 1016.6 0.0
14/01:30pm 23.1 20.5 6.0 33 8.9 W 9 13 5 7 1019.4 1017.0 0.0
14/01:00pm 21.6 18.0 5.1 34 8.4 NW 13 22 7 12 1019.6 1017.2 0.0
14/12:30pm 21.0 17.7 6.5 39 7.5 NNW 13 17 7 9 1020.0 1017.5 0.0
14/12:00pm 19.8 16.4 5.8 40 7.1 NW 13 22 7 12 1020.5 1018.1 0.0
14/11:30am 18.6 15.2 5.8 43 6.5 NW 13 24 7 13 1020.7 1018.3 0.0
14/11:00am 18.0 16.0 8.6 54 5.0 N 9 17 5 9 1020.7 1018.3 0.0
14/10:30am 16.9 14.5 8.8 59 4.3 NW 11 15 6 8 1020.7 1018.3 0.0
14/10:00am 15.5 14.0 8.5 63 3.6 WSW 6 11 3 6 1020.8 1018.4 0.0
14/09:30am 14.8 13.4 8.7 67 3.2 N 6 9 3 5 1021.0 1018.6 0.0
14/09:00am 13.4 11.6 8.0 70 2.7 WSW 7 9 4 5 1021.0 1018.6 0.0
14/08:30am 11.8 9.9 7.5 75 2.1 SSE 7 11 4 6 1020.4 1017.9 0.0
14/08:00am 10.0 8.3 7.6 85 1.2 NNE 6 7 3 4 1020.1 1017.6 0.0
14/07:30am 8.2 7.1 6.8 91 0.7 NNE 2 7 1 4 1019.4 1017.0 0.0
14/07:00am 6.8 4.5 5.7 93 0.5 NNE 7 9 4 5 1019.2 1016.8 0.0
14/06:30am 6.4 5.4 5.7 95 0.3 CALM 0 0 0 0 1018.9 1016.4 0.0
14/06:00am 7.0 5.4 6.4 96 0.3 ESE 4 7 2 4 1018.7 1016.2 0.0
14/05:30am 6.0 3.7 4.6 91 0.6 E 6 9 3 5 1018.4 1015.9 0.0
14/05:00am 7.4 5.3 6.0 91 0.7 N 6 7 3 4 1018.0 1015.5 0.0
14/04:30am 7.4 5.7 5.9 90 0.7 ESE 4 7 2 4 1017.7 1015.3 0.0
14/04:00am 8.0 7.1 6.0 87 0.9 CALM 0 0 0 0 1017.4 1015.0 0.0
14/03:30am 8.0 6.3 5.8 86 1.0 ESE 4 7 2 4 1017.4 1015.0 0.0
14/03:00am 8.1 7.3 6.4 89 0.8 CALM 0 0 0 0 1017.3 1014.8 0.0
14/02:30am 8.9 7.7 6.5 85 1.1 ESE 2 7 1 4 1017.4 1015.0 0.0
14/02:00am 9.3 7.4 6.7 84 1.3 ESE 6 9 3 5 1017.3 1014.8 0.0
14/01:30am 9.8 8.5 6.2 78 1.7 ESE 2 7 1 4 1017.5 1015.1 0.0
14/01:00am 11.1 9.3 7.0 76 2.0 E 6 9 3 5 1017.4 1015.0 0.0
14/12:30am 11.9 10.9 7.4 74 2.2 E 2 7 1 4 1017.3 1014.8 0.0
14/12:00am 11.6 9.5 6.7 72 2.4 E 7 11 4 6 1017.1 1014.6 0.0
 
Date/Time
EDT
Temp
°C
App
Temp
°C
Dew
Point
°C
Rel
Hum
%
Delta-T
°C
Wind Press
QNH
hPa
Press
MSL
hPa
Rain since
9am
mm
Dir  Spd
km/h
Gust
km/h
Spd
kts
Gust
kts
13/11:30pm 12.3 9.5 6.8 69 2.7 E 11 17 6 9 1016.8 1014.3 0.0
13/11:00pm 12.6 9.0 6.6 67 3.0 E 15 24 8 13 1016.6 1014.1 0.0
13/10:30pm 12.5 9.6 6.3 66 3.0 E 11 15 6 8 1016.4 1013.9 0.0
13/10:00pm 13.1 8.2 6.7 65 3.2 ESE 22 33 12 18 1015.8 1013.3 0.0
13/09:30pm 13.5 9.0 7.1 65 3.2 E 20 30 11 16 1015.1 1012.6 0.0
13/09:00pm 14.1 7.3 6.9 62 3.6 ENE 32 39 17 21 1014.5 1012.0 0.0
13/08:30pm 15.1 9.1 7.2 59 4.0 E 28 37 15 20 1013.7 1011.2 0.0
13/08:00pm 18.3 12.6 -1.0 27 8.5 N 19 26 10 14 1012.5 1009.9 0.0
13/07:30pm 19.4 12.7 -1.1 25 9.1 NNW 24 32 13 17 1011.3 1008.8 0.0
13/07:00pm 20.3 12.8 -1.5 23 9.7 NNW 28 33 15 18 1010.8 1008.2 0.0
13/06:30pm 20.9 13.3 -2.2 21 10.2 N 28 35 15 19 1010.3 1007.8 0.0
13/06:00pm 21.5 15.3 -3.1 19 10.7 NNW 20 26 11 14 1009.8 1007.3 0.0
13/05:30pm 22.4 16.9 -2.3 19 11.0 NW 17 28 9 15 1009.5 1006.9 0.0
13/05:00pm 21.9 16.2 -3.5 18 11.0 NW 17 28 9 15 1009.3 1006.7 0.0
13/04:30pm 22.2 15.5 -4.0 17 11.3 WNW 22 32 12 17 1009.1 1006.5 0.0
13/04:00pm 22.3 16.2 -3.9 17 11.3 WNW 19 28 10 15 1008.9 1006.3 0.0
13/03:30pm 21.5 16.1 -4.5 17 11.0 NW 15 32 8 17 1008.8 1006.2 0.0
13/03:00pm 21.6 16.1 -2.3 20 10.6 NW 17 30 9 16 1008.9 1006.3 0.0
13/02:30pm 21.1 15.4 -3.4 19 10.5 NNW 17 28 9 15 1008.9 1006.3 0.0
13/02:00pm 20.5 14.8 -3.9 19 10.4 WNW 17 28 9 15 1009.0 1006.4 0.0
13/01:30pm 20.1 14.4 -3.5 20 10.0 W 17 28 9 15 1009.0 1006.4 0.0
13/01:00pm 20.2 14.1 -2.2 22 9.8 W 20 35 11 19 1008.9 1006.3 0.0
13/12:30pm 18.6 14.2 -2.3 24 9.0 W 11 26 6 14 1008.9 1006.3 0.0
13/12:00pm 18.0 11.9 -2.3 25 8.7 WNW 20 43 11 23 1009.1 1006.5 0.0
13/11:30am 18.2 11.4 -1.6 26 8.6 WNW 24 33 13 18 1009.0 1006.4 0.0
13/11:00am 17.3 11.4 -2.4 26 8.4 WSW 19 35 10 19 1009.0 1006.4 0.0
13/10:30am 17.3 11.4 -1.9 27 8.2 WSW 19 30 10 16 1008.8 1006.2 0.0
13/10:00am 16.2 10.6 -0.1 33 7.2 W 19 24 10 13 1008.5 1006.0 0.0
13/09:30am 15.6 10.2 -1.0 32 7.1 W 17 22 9 12 1008.3 1005.8 0.0
13/09:00am 15.3 9.7 -0.1 35 6.8 W 19 26 10 14 1008.1 1005.5 0.0
13/08:30am 14.6 9.2 1.5 41 5.9 WSW 19 30 10 16 1007.9 1005.3 0.0

Latest Capital City Observations: Canberra | Sydney | Melbourne | Brisbane | Adelaide | Perth | Hobart | Darwin

Other Formats:

Comma delimited format used in spreadsheet applications
http://www.bom.gov.au/fwo/IDN60903/IDN60903.94926.axf

JavaScript Object Notation format (JSON) in row-major order
http://www.bom.gov.au/fwo/IDN60903/IDN60903.94926.json